Stoneykirk, United Kingdom

6:35 AM BST on June 02, 2015 (GMT +0100)
Lochans | | Change Station
CLOSE
Current Station
Personal Weather Station
Location: Stranraer, WIGTOWNSHIRE
Elevation: 90 ft
Nearby Weather Stations

Elev 90 ft 54.87 °N, 5.01 °W | Updated 8 minutes ago

Partly Cloudy
Partly Cloudy
45.7 °F
Feels Like 38 °F
N
18.0
Wind Variable Wind from West
Gusts 25.0 mph

Today
High -- | Low -- °F
--% Chance of Precip.
Yesterday
High -- | Low -- °F
Precip. -- in
4:48 AM 9:47 PM
Full, 100% visible
Pressure 29.27 in
Visibility 6.2 miles
Clouds Few 3500 ft
Windchill 38 °F
Dew Point 41 °F
Humidity 82%
Rainfall 0.00 in
Snow Depth Not available.
UV 0.0 out of 12
Pollen Not available.
Air Quality Not available.
Flu Activity Not available.
METAR EGAC 020520Z 22015KT 9999 FEW035 07/01 Q0991

More Conditions Fewer Conditions

Pressure 29.27 in
Visibility 6.2 miles
Clouds Few 3500 ft
Windchill 38 °F
Dew Point 41 °F
Humidity 82%
Rainfall 0.00 in
Snow Depth Not available.
UV 0.0 out of 12
Pollen Not available.
Air Quality Not available.
Flu Activity Not available.
METAR EGAC 020520Z 22015KT 9999 FEW035 07/01 Q0991

More Conditions Fewer Conditions

10-Day Weather Forecast

Almanac

Astronomy

Jun. 02, 2015 Rise Set
Actual Time
Civil Twilight
Nautical Twilight
Astronomical Twilight
Moon
Length of Visible Light
Length of Day
Tomorrow will be .
, % of the Moon is Illuminated

Today's Extremes

Country Highs Country Lows

Community

WunderPhotos

Upload Photos

1,825,920 photos uploaded!

WunderBlogs® & News

Nearby

Air Quality

  Air Quality AQ Index Pollutant
Not available.

Snow Depth

Station Depth Elevation

Earthquake Activity

City Distance Mag. Time & Date
Minimum magnitude displayed is 2.5.

Coastal Water Temperatures

Place Temperature

Stations

Nearby Weather Stations

Station Location Temp. Windchill Dew Point Humidity Wind Precip. Elev Updated Type